Pagrindinis puslapis
METAR-TAF:

METAR-TAF

Oro uostai :

Tongatapu, Tonga

platuma: 21-14S, ilguma: 175-09W, Aukštis: 38 m

Dabartinis oras

Ataskaita buvo paskelbta 47 minutes, ne 06:00 UTC
Vėjas 2 kt nuo kintamojo kryptimis
Temperatūra 27°C
Drėgmė 79%
Slėgis 1011 hPa
Matomumas 10 km arba daugiau
Mažai debesys ne aukštis 1800 ft, aukštai iškilę kamuoliniai debesys.
Išsisklaidę debesys ne aukštis 3000 ft

METAR: NFTF 120600Z VRB02KT 9999 FEW018TCU SCT030 27/23 Q1011

Laikas: 19:47 (06:47 UTC)

Prognozė

Ataskaita buvo paskelbta 1 valandą ir 37 minutes, ne 05:10 UTC
Prognozė galioja nuo 12 metu 06 UTC su 13 metu 06 UTC
Vėjas 3 kt nuo kintamojo kryptimis
Matomumas 10 km arba daugiau
Išsisklaidę debesys ne aukštis 1800 ft

TAF: NFTF 120510Z 1206/1306 VRB03KT 9999 SCT018

Orai ataskaitas ir orų prognozės (METAR, TAF).

turimą stotys yra geltonos ir raudonos taškus žemėlapyje.

Perkelti pele per norėdami pamatyti stoties vardą.

Tada spustelėkite, norėdami matyti oro stebėjimo ir prognozės.

Norėdami pakeisti žemėlapį: spustelėkite ant žalios mygtukų su juodo kryžiaus žemyn,; žalią mygtuką su brūkšneliu, jei norite nutolinti; arba žalių rodyklių gretimoms žemėlapius.


METAR-TAF: